sensor_id;sensor_type;location;lat;lon;timestamp;pressure;altitude;pressure_sealevel;temperature;humidity
39435;BME280;66825;51.880;-0.518;2023-06-14T00:01:17;100798.59;;;23.41;42.65
39435;BME280;66825;51.880;-0.518;2023-06-14T00:03:45;100792.47;;;23.35;42.63
39435;BME280;66825;51.880;-0.518;2023-06-14T00:06:12;100804.41;;;23.39;42.49
39435;BME280;66825;51.880;-0.518;2023-06-14T00:08:38;100806.34;;;23.39;42.38
39435;BME280;66825;51.880;-0.518;2023-06-14T00:11:05;100699.63;;;22.72;42.55
39435;BME280;66825;51.880;-0.518;2023-06-14T00:13:30;100745.56;;;23.02;42.72
39435;BME280;66825;51.880;-0.518;2023-06-14T00:15:56;100746.34;;;23.02;42.66
39435;BME280;66825;51.880;-0.518;2023-06-14T00:18:21;100798.16;;;23.30;42.48
39435;BME280;66825;51.880;-0.518;2023-06-14T00:20:49;100759.28;;;23.02;42.78
39435;BME280;66825;51.880;-0.518;2023-06-14T00:23:15;100769.16;;;23.03;42.58
39435;BME280;66825;51.880;-0.518;2023-06-14T00:25:40;100823.03;;;23.34;42.53
39435;BME280;66825;51.880;-0.518;2023-06-14T00:28:06;100825.78;;;23.34;42.56
39435;BME280;66825;51.880;-0.518;2023-06-14T00:30:31;100773.81;;;23.02;42.46
39435;BME280;66825;51.880;-0.518;2023-06-14T00:32:57;100826.44;;;23.30;42.94
39435;BME280;66825;51.880;-0.518;2023-06-14T00:35:23;100830.81;;;23.31;42.64
39435;BME280;66825;51.880;-0.518;2023-06-14T00:37:49;100830.81;;;23.31;42.59
39435;BME280;66825;51.880;-0.518;2023-06-14T00:40:14;100826.28;;;23.27;42.78
39435;BME280;66825;51.880;-0.518;2023-06-14T00:42:40;100826.78;;;23.29;42.88
39435;BME280;66825;51.880;-0.518;2023-06-14T00:45:05;100818.72;;;23.24;42.58
39435;BME280;66825;51.880;-0.518;2023-06-14T00:47:31;100830.66;;;23.28;42.65
39435;BME280;66825;51.880;-0.518;2023-06-14T00:49:57;100834.53;;;23.27;42.69
39435;BME280;66825;51.880;-0.518;2023-06-14T00:52:24;100831.78;;;23.27;42.58
39435;BME280;66825;51.880;-0.518;2023-06-14T00:54:49;100834.53;;;23.27;42.62
39435;BME280;66825;51.880;-0.518;2023-06-14T00:57:16;100837.63;;;23.25;42.76
39435;BME280;66825;51.880;-0.518;2023-06-14T00:59:44;100830.50;;;23.24;42.73
39435;BME280;66825;51.880;-0.518;2023-06-14T01:02:10;100831.66;;;23.23;42.45
39435;BME280;66825;51.880;-0.518;2023-06-14T01:04:36;100830.72;;;23.19;42.64
39435;BME280;66825;51.880;-0.518;2023-06-14T01:07:27;100833.59;;;23.23;42.61
39435;BME280;66825;51.880;-0.518;2023-06-14T01:10:15;100830.84;;;23.23;42.84
39435;BME280;66825;51.880;-0.518;2023-06-14T01:12:58;100831.16;;;23.21;42.74
39435;BME280;66825;51.880;-0.518;2023-06-14T01:15:30;100828.75;;;23.20;42.61
39435;BME280;66825;51.880;-0.518;2023-06-14T01:17:56;100829.88;;;23.19;42.68
39435;BME280;66825;51.880;-0.518;2023-06-14T01:20:29;100827.78;;;23.15;42.68
39435;BME280;66825;51.880;-0.518;2023-06-14T01:22:55;100822.28;;;23.07;42.74
39435;BME280;66825;51.880;-0.518;2023-06-14T01:25:21;100839.25;;;23.18;42.90
39435;BME280;66825;51.880;-0.518;2023-06-14T01:27:53;100836.66;;;23.12;42.60
39435;BME280;66825;51.880;-0.518;2023-06-14T01:30:21;100838.78;;;23.15;42.70
39435;BME280;66825;51.880;-0.518;2023-06-14T01:32:49;100833.28;;;23.15;42.77
39435;BME280;66825;51.880;-0.518;2023-06-14T01:35:16;100827.78;;;23.15;42.63
39435;BME280;66825;51.880;-0.518;2023-06-14T01:37:42;100835.19;;;23.15;42.69
39435;BME280;66825;51.880;-0.518;2023-06-14T01:40:10;100831.66;;;23.14;42.50
39435;BME280;66825;51.880;-0.518;2023-06-14T01:42:37;100827.28;;;23.13;42.80
39435;BME280;66825;51.880;-0.518;2023-06-14T01:45:07;100826.81;;;23.11;42.93
39435;BME280;66825;51.880;-0.518;2023-06-14T01:47:33;100821.00;;;23.04;42.57
39435;BME280;66825;51.880;-0.518;2023-06-14T01:49:59;100830.38;;;23.12;42.75
39435;BME280;66825;51.880;-0.518;2023-06-14T01:52:25;100799.56;;;22.97;42.55
39435;BME280;66825;51.880;-0.518;2023-06-14T01:54:51;100795.19;;;22.96;42.72
39435;BME280;66825;51.880;-0.518;2023-06-14T01:57:16;100812.59;;;23.09;42.77
39435;BME280;66825;51.880;-0.518;2023-06-14T01:59:42;100815.34;;;23.09;42.86
39435;BME280;66825;51.880;-0.518;2023-06-14T02:02:07;100808.25;;;23.08;42.79
39435;BME280;66825;51.880;-0.518;2023-06-14T02:04:33;100809.38;;;23.07;42.75
39435;BME280;66825;51.880;-0.518;2023-06-14T02:06:58;100813.25;;;23.06;42.68
39435;BME280;66825;51.880;-0.518;2023-06-14T02:09:24;100798.69;;;23.06;42.64
39435;BME280;66825;51.880;-0.518;2023-06-14T02:11:49;100791.78;;;22.99;42.88
39435;BME280;66825;51.880;-0.518;2023-06-14T02:14:15;100795.66;;;22.98;42.75
39435;BME280;66825;51.880;-0.518;2023-06-14T02:16:43;100803.72;;;23.04;42.71
39435;BME280;66825;51.880;-0.518;2023-06-14T02:19:17;100799.38;;;23.03;42.82
39435;BME280;66825;51.880;-0.518;2023-06-14T02:21:43;100804.03;;;23.02;42.77
39435;BME280;66825;51.880;-0.518;2023-06-14T02:24:08;100781.47;;;22.88;42.81
39435;BME280;66825;51.880;-0.518;2023-06-14T02:26:34;100805.19;;;23.01;42.68
39435;BME280;66825;51.880;-0.518;2023-06-14T02:28:59;100797.28;;;22.99;42.72
39435;BME280;66825;51.880;-0.518;2023-06-14T02:31:25;100800.00;;;22.99;42.58
39435;BME280;66825;51.880;-0.518;2023-06-14T02:33:50;100785.19;;;22.92;42.69
39435;BME280;66825;51.880;-0.518;2023-06-14T02:36:16;100781.94;;;22.90;42.80
39435;BME280;66825;51.880;-0.518;2023-06-14T02:38:42;100797.59;;;22.98;42.90
39435;BME280;66825;51.880;-0.518;2023-06-14T02:41:07;100796.81;;;22.97;42.85
39435;BME280;66825;51.880;-0.518;2023-06-14T02:43:33;100786.94;;;22.96;42.87
39435;BME280;66825;51.880;-0.518;2023-06-14T02:45:58;100785.34;;;22.95;42.78
39435;BME280;66825;51.880;-0.518;2023-06-14T02:48:24;100768.06;;;22.86;42.83
39435;BME280;66825;51.880;-0.518;2023-06-14T02:50:49;100784.50;;;22.95;42.74
39435;BME280;66825;51.880;-0.518;2023-06-14T02:53:15;100790.00;;;22.95;42.68
39435;BME280;66825;51.880;-0.518;2023-06-14T02:55:41;100790.00;;;22.95;42.64
39435;BME280;66825;51.880;-0.518;2023-06-14T02:58:07;100771.63;;;22.87;42.72
39435;BME280;66825;51.880;-0.518;2023-06-14T03:00:32;100781.31;;;22.93;42.90
39435;BME280;66825;51.880;-0.518;2023-06-14T03:02:58;100772.44;;;22.87;42.77
39435;BME280;66825;51.880;-0.518;2023-06-14T03:05:27;100791.47;;;22.92;42.79
39435;BME280;66825;51.880;-0.518;2023-06-14T03:07:53;100788.72;;;22.92;42.71
39435;BME280;66825;51.880;-0.518;2023-06-14T03:10:19;100781.63;;;22.91;42.69
39435;BME280;66825;51.880;-0.518;2023-06-14T03:12:47;100732.63;;;22.55;42.78
39435;BME280;66825;51.880;-0.518;2023-06-14T03:15:12;100783.56;;;22.91;42.70
39435;BME280;66825;51.880;-0.518;2023-06-14T03:17:38;100785.53;;;22.90;42.57
39435;BME280;66825;51.880;-0.518;2023-06-14T03:20:04;100766.97;;;22.78;42.68
39435;BME280;66825;51.880;-0.518;2023-06-14T03:22:30;100771.00;;;22.81;42.82
39435;BME280;66825;51.880;-0.518;2023-06-14T03:24:57;100785.03;;;22.88;42.94
39435;BME280;66825;51.880;-0.518;2023-06-14T03:27:24;100761.47;;;22.78;42.85
39435;BME280;66825;51.880;-0.518;2023-06-14T03:29:50;100774.38;;;22.87;42.87
39435;BME280;66825;51.880;-0.518;2023-06-14T03:32:16;100759.38;;;22.75;42.65
39435;BME280;66825;51.880;-0.518;2023-06-14T03:34:42;100785.38;;;22.87;42.72
39435;BME280;66825;51.880;-0.518;2023-06-14T03:37:08;100777.44;;;22.85;42.78
39435;BME280;66825;51.880;-0.518;2023-06-14T03:39:33;100780.19;;;22.85;42.80
39435;BME280;66825;51.880;-0.518;2023-06-14T03:41:59;100779.41;;;22.84;42.66
39435;BME280;66825;51.880;-0.518;2023-06-14T03:44:26;100781.31;;;22.84;42.64
39435;BME280;66825;51.880;-0.518;2023-06-14T03:46:51;100783.28;;;22.83;42.80
39435;BME280;66825;51.880;-0.518;2023-06-14T03:49:17;100780.53;;;22.83;42.70
39435;BME280;66825;51.880;-0.518;2023-06-14T03:51:42;100787.16;;;22.82;42.79
39435;BME280;66825;51.880;-0.518;2023-06-14T03:54:08;100778.75;;;22.79;42.77
39435;BME280;66825;51.880;-0.518;2023-06-14T03:56:33;100779.25;;;22.81;42.80
39435;BME280;66825;51.880;-0.518;2023-06-14T03:58:59;100783.13;;;22.80;42.87
39435;BME280;66825;51.880;-0.518;2023-06-14T04:01:25;100756.84;;;22.61;42.88
39435;BME280;66825;51.880;-0.518;2023-06-14T04:03:56;100781.50;;;22.79;42.80
39435;BME280;66825;51.880;-0.518;2023-06-14T04:06:22;100788.94;;;22.78;42.73
39435;BME280;66825;51.880;-0.518;2023-06-14T04:08:47;100784.59;;;22.77;42.63
39435;BME280;66825;51.880;-0.518;2023-06-14T04:11:15;100776.53;;;22.72;42.75
39435;BME280;66825;51.880;-0.518;2023-06-14T04:13:40;100788.47;;;22.76;42.83
39435;BME280;66825;51.880;-0.518;2023-06-14T04:16:06;100777.97;;;22.69;42.73
39435;BME280;66825;51.880;-0.518;2023-06-14T04:18:31;100792.00;;;22.77;42.75
39435;BME280;66825;51.880;-0.518;2023-06-14T04:20:57;100799.44;;;22.76;42.73
39435;BME280;66825;51.880;-0.518;2023-06-14T04:23:22;100793.97;;;22.76;42.77
39435;BME280;66825;51.880;-0.518;2023-06-14T04:25:48;100789.59;;;22.75;42.70
39435;BME280;66825;51.880;-0.518;2023-06-14T04:28:15;100799.78;;;22.75;42.56
39435;BME280;66825;51.880;-0.518;2023-06-14T04:30:44;100795.09;;;22.75;42.83
39435;BME280;66825;51.880;-0.518;2023-06-14T04:33:10;100787.22;;;22.65;42.76
39435;BME280;66825;51.880;-0.518;2023-06-14T04:35:37;100800.09;;;22.73;42.87
39435;BME280;66825;51.880;-0.518;2023-06-14T04:38:05;100785.75;;;22.67;42.91
39435;BME280;66825;51.880;-0.518;2023-06-14T04:40:34;100793.00;;;22.72;42.83
39435;BME280;66825;51.880;-0.518;2023-06-14T04:43:01;100788.94;;;22.69;42.92
39435;BME280;66825;51.880;-0.518;2023-06-14T04:45:31;100796.06;;;22.71;42.81
39435;BME280;66825;51.880;-0.518;2023-06-14T04:47:59;100793.16;;;22.67;42.93
39435;BME280;66825;51.880;-0.518;2023-06-14T04:50:25;100792.72;;;22.65;42.90
39435;BME280;66825;51.880;-0.518;2023-06-14T04:52:50;100803.84;;;22.68;42.95
39435;BME280;66825;51.880;-0.518;2023-06-14T04:55:17;100807.72;;;22.67;42.94
39435;BME280;66825;51.880;-0.518;2023-06-14T04:57:44;100808.84;;;22.66;42.88
39435;BME280;66825;51.880;-0.518;2023-06-14T05:00:10;100806.91;;;22.67;42.86
39435;BME280;66825;51.880;-0.518;2023-06-14T05:02:37;100797.88;;;22.66;42.97
39435;BME280;66825;51.880;-0.518;2023-06-14T05:05:03;100801.41;;;22.67;42.85
39435;BME280;66825;51.880;-0.518;2023-06-14T05:07:32;100810.31;;;22.64;42.88
39435;BME280;66825;51.880;-0.518;2023-06-14T05:09:59;100808.34;;;22.64;42.93
39435;BME280;66825;51.880;-0.518;2023-06-14T05:12:24;100739.13;;;22.24;42.63
39435;BME280;66825;51.880;-0.518;2023-06-14T05:14:50;100798.19;;;22.56;43.01
39435;BME280;66825;51.880;-0.518;2023-06-14T05:17:15;100791.41;;;22.53;42.97
39435;BME280;66825;51.880;-0.518;2023-06-14T05:19:42;100802.56;;;22.57;42.83
39435;BME280;66825;51.880;-0.518;2023-06-14T05:22:08;100809.66;;;22.58;42.83
39435;BME280;66825;51.880;-0.518;2023-06-14T05:24:33;100798.72;;;22.49;42.78
39435;BME280;66825;51.880;-0.518;2023-06-14T05:26:58;100821.59;;;22.62;42.92
39435;BME280;66825;51.880;-0.518;2023-06-14T05:29:24;100821.59;;;22.62;42.81
39435;BME280;66825;51.880;-0.518;2023-06-14T05:31:50;100804.81;;;22.55;43.04
39435;BME280;66825;51.880;-0.518;2023-06-14T05:34:15;100804.50;;;22.48;42.98
39435;BME280;66825;51.880;-0.518;2023-06-14T05:36:41;100823.56;;;22.62;42.99
39435;BME280;66825;51.880;-0.518;2023-06-14T05:39:06;100761.91;;;22.24;42.88
39435;BME280;66825;51.880;-0.518;2023-06-14T05:41:32;100828.56;;;22.60;42.87
39435;BME280;66825;51.880;-0.518;2023-06-14T05:43:57;100817.56;;;22.60;42.87
39435;BME280;66825;51.880;-0.518;2023-06-14T05:46:23;100819.53;;;22.59;42.85
39435;BME280;66825;51.880;-0.518;2023-06-14T05:48:53;100757.69;;;22.18;42.90
39435;BME280;66825;51.880;-0.518;2023-06-14T05:51:18;100821.44;;;22.59;42.90
39435;BME280;66825;51.880;-0.518;2023-06-14T05:53:50;100822.59;;;22.58;42.81
39435;BME280;66825;51.880;-0.518;2023-06-14T05:56:17;100815.16;;;22.58;42.90
39435;BME280;66825;51.880;-0.518;2023-06-14T05:58:43;100801.75;;;22.48;42.85
39435;BME280;66825;51.880;-0.518;2023-06-14T06:01:09;100805.81;;;22.50;42.90
39435;BME280;66825;51.880;-0.518;2023-06-14T06:03:34;100817.41;;;22.56;42.95
39435;BME280;66825;51.880;-0.518;2023-06-14T06:06:00;100815.78;;;22.55;43.02
39435;BME280;66825;51.880;-0.518;2023-06-14T06:08:28;100821.28;;;22.55;42.88
39435;BME280;66825;51.880;-0.518;2023-06-14T06:10:55;100814.22;;;22.54;42.83
39435;BME280;66825;51.880;-0.518;2023-06-14T06:13:20;100818.88;;;22.53;42.83
39435;BME280;66825;51.880;-0.518;2023-06-14T06:15:46;100818.88;;;22.53;42.86
39435;BME280;66825;51.880;-0.518;2023-06-14T06:18:12;100817.25;;;22.52;42.85
39435;BME280;66825;51.880;-0.518;2023-06-14T06:20:37;100820.81;;;22.53;42.76
39435;BME280;66825;51.880;-0.518;2023-06-14T06:23:03;100767.88;;;22.17;42.81
39435;BME280;66825;51.880;-0.518;2023-06-14T06:25:28;100812.91;;;22.51;43.16
39435;BME280;66825;51.880;-0.518;2023-06-14T06:27:54;100767.88;;;22.17;42.84
39435;BME280;66825;51.880;-0.518;2023-06-14T06:30:21;100822.28;;;22.50;42.95
39435;BME280;66825;51.880;-0.518;2023-06-14T06:32:46;100808.19;;;22.34;42.82
39435;BME280;66825;51.880;-0.518;2023-06-14T06:35:12;100804.81;;;22.37;42.89
39435;BME280;66825;51.880;-0.518;2023-06-14T06:37:38;100824.22;;;22.50;42.78
39435;BME280;66825;51.880;-0.518;2023-06-14T06:40:05;100790.94;;;22.25;42.93
39435;BME280;66825;51.880;-0.518;2023-06-14T06:42:31;100820.66;;;22.49;42.92
39435;BME280;66825;51.880;-0.518;2023-06-14T06:44:57;100821.78;;;22.48;42.91
39435;BME280;66825;51.880;-0.518;2023-06-14T06:47:23;100830.81;;;22.49;42.89
39435;BME280;66825;51.880;-0.518;2023-06-14T06:49:48;100827.28;;;22.48;42.98
39435;BME280;66825;51.880;-0.518;2023-06-14T06:52:14;100811.97;;;22.39;42.96
39435;BME280;66825;51.880;-0.518;2023-06-14T06:54:40;100821.78;;;22.48;42.85
39435;BME280;66825;51.880;-0.518;2023-06-14T06:57:05;100833.13;;;22.47;42.89
39435;BME280;66825;51.880;-0.518;2023-06-14T06:59:31;100829.22;;;22.48;42.79
39435;BME280;66825;51.880;-0.518;2023-06-14T07:01:57;100836.66;;;22.47;42.84
39435;BME280;66825;51.880;-0.518;2023-06-14T07:04:22;100798.38;;;22.25;42.87
39435;BME280;66825;51.880;-0.518;2023-06-14T07:06:48;100829.53;;;22.46;42.77
39435;BME280;66825;51.880;-0.518;2023-06-14T07:09:13;100826.63;;;22.43;42.67
39435;BME280;66825;51.880;-0.518;2023-06-14T07:11:42;100811.63;;;22.31;42.84
39435;BME280;66825;51.880;-0.518;2023-06-14T07:14:07;100833.41;;;22.45;42.85
39435;BME280;66825;51.880;-0.518;2023-06-14T07:16:33;100830.38;;;22.47;42.89
39435;BME280;66825;51.880;-0.518;2023-06-14T07:18:59;100837.16;;;22.49;42.64
39435;BME280;66825;51.880;-0.518;2023-06-14T07:21:25;100843.91;;;22.52;42.69
39435;BME280;66825;51.880;-0.518;2023-06-14T07:23:52;100834.84;;;22.51;42.69
39435;BME280;66825;51.880;-0.518;2023-06-14T07:26:18;100841.97;;;22.52;43.00
39435;BME280;66825;51.880;-0.518;2023-06-14T07:28:43;100827.75;;;22.42;42.96
39435;BME280;66825;51.880;-0.518;2023-06-14T07:31:12;100821.94;;;22.43;43.14
39435;BME280;66825;51.880;-0.518;2023-06-14T07:33:38;100833.91;;;22.47;43.20
39435;BME280;66825;51.880;-0.518;2023-06-14T07:36:22;100841.97;;;22.52;43.37
39435;BME280;66825;51.880;-0.518;2023-06-14T07:38:55;100849.41;;;22.52;43.39
39435;BME280;66825;51.880;-0.518;2023-06-14T07:41:21;100845.84;;;22.51;43.20
39435;BME280;66825;51.880;-0.518;2023-06-14T07:43:47;100848.28;;;22.53;43.46
39435;BME280;66825;51.880;-0.518;2023-06-14T07:46:12;100859.25;;;22.53;43.42
39435;BME280;66825;51.880;-0.518;2023-06-14T07:48:38;100858.44;;;22.52;43.47
39435;BME280;66825;51.880;-0.518;2023-06-14T07:51:03;100851.34;;;22.51;43.78
39435;BME280;66825;51.880;-0.518;2023-06-14T07:53:29;100850.38;;;22.47;43.99
39435;BME280;66825;51.880;-0.518;2023-06-14T07:55:56;100841.97;;;22.44;43.98
39435;BME280;66825;51.880;-0.518;2023-06-14T07:58:21;100771.25;;;21.97;44.00
39435;BME280;66825;51.880;-0.518;2023-06-14T08:00:47;100828.88;;;22.32;44.34
39435;BME280;66825;51.880;-0.518;2023-06-14T08:03:12;100856.34;;;22.49;44.28
39435;BME280;66825;51.880;-0.518;2023-06-14T08:05:38;100848.59;;;22.43;44.26
39435;BME280;66825;51.880;-0.518;2023-06-14T08:08:03;100865.22;;;22.46;44.46
39435;BME280;66825;51.880;-0.518;2023-06-14T08:10:29;100853.13;;;22.47;44.49
39435;BME280;66825;51.880;-0.518;2023-06-14T08:12:54;100859.75;;;22.46;44.65
39435;BME280;66825;51.880;-0.518;2023-06-14T08:15:20;100858.13;;;22.45;44.48
39435;BME280;66825;51.880;-0.518;2023-06-14T08:17:45;100857.00;;;22.46;44.72
39435;BME280;66825;51.880;-0.518;2023-06-14T08:20:12;100836.78;;;22.33;44.59
39435;BME280;66825;51.880;-0.518;2023-06-14T08:22:39;100860.06;;;22.45;45.95
39435;BME280;66825;51.880;-0.518;2023-06-14T08:25:07;100864.59;;;22.49;45.87
39435;BME280;66825;51.880;-0.518;2023-06-14T08:27:33;100864.25;;;22.51;45.55
39435;BME280;66825;51.880;-0.518;2023-06-14T08:29:58;100868.63;;;22.52;45.41
39435;BME280;66825;51.880;-0.518;2023-06-14T08:32:24;100862.00;;;22.53;45.52
39435;BME280;66825;51.880;-0.518;2023-06-14T08:34:49;100859.72;;;22.55;45.66
39435;BME280;66825;51.880;-0.518;2023-06-14T08:37:15;100797.25;;;22.17;45.65
39435;BME280;66825;51.880;-0.518;2023-06-14T08:39:40;100842.94;;;22.48;45.74
39435;BME280;66825;51.880;-0.518;2023-06-14T08:42:07;100866.03;;;22.64;45.67
39435;BME280;66825;51.880;-0.518;2023-06-14T08:44:33;100861.03;;;22.66;45.69
39435;BME280;66825;51.880;-0.518;2023-06-14T08:46:59;100855.88;;;22.65;46.07
39435;BME280;66825;51.880;-0.518;2023-06-14T08:49:25;100861.19;;;22.70;46.08
39435;BME280;66825;51.880;-0.518;2023-06-14T08:51:59;100859.88;;;22.76;46.32
39435;BME280;66825;51.880;-0.518;2023-06-14T08:54:28;100843.88;;;22.69;45.99
39435;BME280;66825;51.880;-0.518;2023-06-14T08:56:59;100820.00;;;22.52;46.12
39435;BME280;66825;51.880;-0.518;2023-06-14T08:59:26;100867.13;;;22.90;45.85
39435;BME280;66825;51.880;-0.518;2023-06-14T09:01:52;100860.66;;;22.94;46.13
39435;BME280;66825;51.880;-0.518;2023-06-14T09:04:18;100861.59;;;22.98;46.15
39435;BME280;66825;51.880;-0.518;2023-06-14T09:06:45;100859.81;;;23.03;45.81
39435;BME280;66825;51.880;-0.518;2023-06-14T09:09:11;100869.00;;;23.07;45.65
39435;BME280;66825;51.880;-0.518;2023-06-14T09:11:37;100856.88;;;23.08;45.64
39435;BME280;66825;51.880;-0.518;2023-06-14T09:14:03;100806.06;;;22.75;45.28
39435;BME280;66825;51.880;-0.518;2023-06-14T09:16:32;100863.81;;;23.14;45.56
39435;BME280;66825;51.880;-0.518;2023-06-14T09:18:57;100870.63;;;23.16;45.46
39435;BME280;66825;51.880;-0.518;2023-06-14T09:21:23;100865.94;;;23.17;45.30
39435;BME280;66825;51.880;-0.518;2023-06-14T09:23:49;100865.44;;;23.24;45.39
39435;BME280;66825;51.880;-0.518;2023-06-14T09:26:16;100870.75;;;23.29;45.17
39435;BME280;66825;51.880;-0.518;2023-06-14T09:28:43;100861.88;;;23.23;45.60
39435;BME280;66825;51.880;-0.518;2023-06-14T09:31:13;100866.88;;;23.30;45.63
39435;BME280;66825;51.880;-0.518;2023-06-14T09:33:42;100871.06;;;23.36;45.30
39435;BME280;66825;51.880;-0.518;2023-06-14T09:36:12;100872.69;;;23.37;45.72
39435;BME280;66825;51.880;-0.518;2023-06-14T09:38:40;100812.13;;;22.98;45.41
39435;BME280;66825;51.880;-0.518;2023-06-14T09:41:05;100867.47;;;23.36;45.53
39435;BME280;66825;51.880;-0.518;2023-06-14T09:43:32;100885.75;;;23.40;45.46
39435;BME280;66825;51.880;-0.518;2023-06-14T09:46:00;100880.72;;;23.42;45.40
39435;BME280;66825;51.880;-0.518;2023-06-14T09:48:26;100871.06;;;23.36;45.28
39435;BME280;66825;51.880;-0.518;2023-06-14T09:50:52;100872.28;;;23.47;45.28
39435;BME280;66825;51.880;-0.518;2023-06-14T09:53:21;100855.22;;;23.33;45.48
39435;BME280;66825;51.880;-0.518;2023-06-14T09:55:49;100878.13;;;23.46;45.34
39435;BME280;66825;51.880;-0.518;2023-06-14T09:58:16;100867.78;;;23.43;45.29
39435;BME280;66825;51.880;-0.518;2023-06-14T10:00:42;100883.56;;;23.55;45.43
39435;BME280;66825;51.880;-0.518;2023-06-14T10:03:14;100889.22;;;23.58;45.44
39435;BME280;66825;51.880;-0.518;2023-06-14T10:05:45;100867.41;;;23.53;45.16
39435;BME280;66825;51.880;-0.518;2023-06-14T10:08:18;100891.47;;;23.65;45.14
39435;BME280;66825;51.880;-0.518;2023-06-14T10:10:44;100886.44;;;23.67;44.91
39435;BME280;66825;51.880;-0.518;2023-06-14T10:13:10;100889.66;;;23.69;44.85
39435;BME280;66825;51.880;-0.518;2023-06-14T10:21:33;100886.53;;;23.79;44.61
39435;BME280;66825;51.880;-0.518;2023-06-14T10:24:05;100887.03;;;23.82;44.54
39435;BME280;66825;51.880;-0.518;2023-06-14T10:26:32;100882.78;;;23.84;44.56
39435;BME280;66825;51.880;-0.518;2023-06-14T10:29:17;100878.56;;;23.87;44.89
39435;BME280;66825;51.880;-0.518;2023-06-14T10:31:50;100849.03;;;23.75;44.41
39435;BME280;66825;51.880;-0.518;2023-06-14T10:34:26;100861.91;;;23.83;44.64
39435;BME280;66825;51.880;-0.518;2023-06-14T10:37:11;100878.09;;;23.93;44.67
39435;BME280;66825;51.880;-0.518;2023-06-14T10:39:42;100880.50;;;23.95;44.44
39435;BME280;66825;51.880;-0.518;2023-06-14T10:42:09;100858.53;;;23.86;44.71
39435;BME280;66825;51.880;-0.518;2023-06-14T10:44:39;100871.09;;;23.96;44.46
39435;BME280;66825;51.880;-0.518;2023-06-14T10:47:30;100872.38;;;23.99;44.64
39435;BME280;66825;51.880;-0.518;2023-06-14T10:50:09;100875.13;;;23.99;45.28
39435;BME280;66825;51.880;-0.518;2023-06-14T10:52:42;100876.41;;;24.01;45.74
39435;BME280;66825;51.880;-0.518;2023-06-14T10:55:13;100883.66;;;24.06;45.13
39435;BME280;66825;51.880;-0.518;2023-06-14T10:57:44;100871.66;;;24.10;44.85
39435;BME280;66825;51.880;-0.518;2023-06-14T11:00:18;100868.41;;;24.08;44.34
39435;BME280;66825;51.880;-0.518;2023-06-14T11:08:47;100875.09;;;24.29;43.77
39435;BME280;66825;51.880;-0.518;2023-06-14T11:11:17;100870.16;;;24.34;43.64
39435;BME280;66825;51.880;-0.518;2023-06-14T11:13:45;100864.00;;;24.37;43.66
39435;BME280;66825;51.880;-0.518;2023-06-14T11:16:13;100868.50;;;24.42;43.48
39435;BME280;66825;51.880;-0.518;2023-06-14T11:18:38;100853.09;;;24.41;43.62
39435;BME280;66825;51.880;-0.518;2023-06-14T11:21:04;100860.34;;;24.46;43.29
39435;BME280;66825;51.880;-0.518;2023-06-14T11:23:30;100848.06;;;24.43;43.32
39435;BME280;66825;51.880;-0.518;2023-06-14T11:25:55;100853.50;;;24.52;43.23
39435;BME280;66825;51.880;-0.518;2023-06-14T11:28:20;100850.41;;;24.53;43.27
39435;BME280;66825;51.880;-0.518;2023-06-14T11:30:48;100855.59;;;24.55;43.74
39435;BME280;66825;51.880;-0.518;2023-06-14T11:33:19;100843.44;;;24.56;43.29
39435;BME280;66825;51.880;-0.518;2023-06-14T11:35:44;100854.91;;;24.58;43.19
39435;BME280;66825;51.880;-0.518;2023-06-14T11:38:11;100845.97;;;24.61;42.82
39435;BME280;66825;51.880;-0.518;2023-06-14T11:40:38;100854.22;;;24.61;42.23
39435;BME280;66825;51.880;-0.518;2023-06-14T11:43:04;100818.94;;;24.42;42.75
39435;BME280;66825;51.880;-0.518;2023-06-14T11:45:30;100846.09;;;24.65;42.39
39435;BME280;66825;51.880;-0.518;2023-06-14T11:47:57;100844.94;;;24.66;42.25
39435;BME280;66825;51.880;-0.518;2023-06-14T11:50:22;100845.44;;;24.68;42.04
39435;BME280;66825;51.880;-0.518;2023-06-14T11:52:55;100840.75;;;24.68;41.95
39435;BME280;66825;51.880;-0.518;2023-06-14T11:55:22;100847.50;;;24.71;42.09
39435;BME280;66825;51.880;-0.518;2023-06-14T11:57:47;100838.13;;;24.72;42.12
39435;BME280;66825;51.880;-0.518;2023-06-14T12:00:14;100845.69;;;24.75;41.78
39435;BME280;66825;51.880;-0.518;2023-06-14T12:02:41;100843.28;;;24.73;40.90
39435;BME280;66825;51.880;-0.518;2023-06-14T12:05:07;100847.28;;;24.76;41.17
39435;BME280;66825;51.880;-0.518;2023-06-14T12:07:38;100844.22;;;24.78;41.52
39435;BME280;66825;51.880;-0.518;2023-06-14T12:10:08;100839.97;;;24.80;41.30
39435;BME280;66825;51.880;-0.518;2023-06-14T12:12:38;100831.34;;;24.82;41.38
39435;BME280;66825;51.880;-0.518;2023-06-14T12:15:07;100845.94;;;24.82;41.09
39435;BME280;66825;51.880;-0.518;2023-06-14T12:17:38;100828.59;;;24.82;41.38
39435;BME280;66825;51.880;-0.518;2023-06-14T12:20:14;100849.63;;;24.86;41.03
39435;BME280;66825;51.880;-0.518;2023-06-14T12:22:55;100826.50;;;24.79;40.47
39435;BME280;66825;51.880;-0.518;2023-06-14T12:25:29;100847.00;;;24.90;40.21
39435;BME280;66825;51.880;-0.518;2023-06-14T12:27:57;100843.09;;;24.91;40.72
39435;BME280;66825;51.880;-0.518;2023-06-14T12:30:22;100833.22;;;24.90;40.31
39435;BME280;66825;51.880;-0.518;2023-06-14T12:32:48;100835.97;;;24.90;40.44
39435;BME280;66825;51.880;-0.518;2023-06-14T12:35:14;100821.72;;;24.88;40.47
39435;BME280;66825;51.880;-0.518;2023-06-14T12:37:40;100837.59;;;24.91;40.32
39435;BME280;66825;51.880;-0.518;2023-06-14T12:40:06;100843.53;;;24.93;40.56
39435;BME280;66825;51.880;-0.518;2023-06-14T12:42:33;100827.00;;;24.93;40.09
39435;BME280;66825;51.880;-0.518;2023-06-14T12:44:59;100824.25;;;24.93;39.77
39435;BME280;66825;51.880;-0.518;2023-06-14T12:47:24;100821.97;;;24.95;39.84
39435;BME280;66825;51.880;-0.518;2023-06-14T12:49:50;100817.81;;;24.89;39.71
39435;BME280;66825;51.880;-0.518;2023-06-14T12:52:15;100828.41;;;24.99;39.89